Time;durP1;ratioP1;P1;durP2;ratioP2;P2;SDS_P1;SDS_P2;PMS_P1;PMS_P2;Temp;Humidity;BMP_temperature;BMP_pressure;BME280_temperature;BME280_humidity;BME280_pressure;Samples;Min_cycle;Max_cycle;Signal;HPM_P1;HPM_P2
2022/08/08 00:01:40;;;;;;;11.80;9.23;;;;;;;14.21;100.00;102428.63;4941122;28;20051;-70
2022/08/08 00:04:17;;;;;;;15.75;9.85;;;;;;;14.23;100.00;102426.72;4952045;28;20039;-68
2022/08/08 00:06:53;;;;;;;14.48;9.43;;;;;;;14.10;100.00;102433.69;4949182;28;20050;-70
2022/08/08 00:09:33;;;;;;;16.50;9.00;;;;;;;14.08;100.00;102430.22;4952207;28;20125;-68
2022/08/08 00:12:02;;;;;;;15.43;10.25;;;;;;;14.14;100.00;102429.91;4943422;29;20121;-69
2022/08/08 00:14:33;;;;;;;15.25;9.50;;;;;;;14.09;100.00;102431.94;4933647;28;20051;-68
2022/08/08 00:17:18;;;;;;;16.27;10.10;;;;;;;14.14;100.00;102426.34;4944357;28;20039;-68
2022/08/08 00:20:13;;;;;;;18.02;9.73;;;;;;;13.99;100.00;102430.69;4947518;28;20547;-69
2022/08/08 00:22:49;;;;;;;15.75;9.80;;;;;;;14.02;100.00;102435.91;4988011;28;20763;-70
2022/08/08 00:25:20;;;;;;;18.83;11.55;;;;;;;14.07;100.00;102422.28;4990029;28;20064;-68
2022/08/08 00:27:49;;;;;;;16.10;9.88;;;;;;;14.07;100.00;102424.94;4992125;28;20064;-68
2022/08/08 00:30:15;;;;;;;16.45;10.48;;;;;;;13.98;100.00;102424.47;4987641;28;20042;-68
2022/08/08 00:32:55;;;;;;;19.80;10.18;;;;;;;13.98;100.00;102429.84;4992478;28;20108;-68
2022/08/08 00:35:33;;;;;;;15.00;9.90;;;;;;;14.06;100.00;102433.94;4988587;28;20067;-67
2022/08/08 00:38:20;;;;;;;19.42;10.38;;;;;;;14.12;100.00;102429.13;4991844;28;20038;-69
2022/08/08 00:41:25;;;;;;;15.85;9.95;;;;;;;14.11;100.00;102423.84;4979348;28;20046;-68
2022/08/08 00:44:03;;;;;;;18.45;10.43;;;;;;;13.90;100.00;102425.81;4991553;28;20045;-67
2022/08/08 00:47:00;;;;;;;20.05;11.13;;;;;;;13.95;100.00;102431.81;4995238;28;20044;-67
2022/08/08 00:49:32;;;;;;;16.75;10.07;;;;;;;13.92;100.00;102418.56;4972915;28;20058;-67
2022/08/08 00:52:22;;;;;;;18.13;10.00;;;;;;;13.56;100.00;102424.03;4997868;28;20049;-70
2022/08/08 00:55:03;;;;;;;18.95;10.60;;;;;;;13.80;100.00;102421.88;4982009;28;20061;-68
2022/08/08 00:57:44;;;;;;;17.52;10.07;;;;;;;13.76;100.00;102417.63;4995314;28;20077;-67
2022/08/08 01:00:20;;;;;;;21.77;11.70;;;;;;;13.68;100.00;102418.88;4978813;28;20042;-68
2022/08/08 01:03:09;;;;;;;11.60;8.85;;;;;;;13.71;100.00;102415.19;5010813;28;20056;-68
2022/08/08 01:06:11;;;;;;;14.93;9.55;;;;;;;13.73;100.00;102422.19;4985955;28;20045;-69
2022/08/08 01:09:10;;;;;;;14.98;10.38;;;;;;;13.76;100.00;102423.88;4990985;28;20042;-68
2022/08/08 01:11:57;;;;;;;15.73;9.80;;;;;;;13.71;100.00;102413.38;4986748;28;20045;-67
2022/08/08 01:14:25;;;;;;;14.20;10.48;;;;;;;13.62;100.00;102411.16;5002690;28;20034;-67
2022/08/08 01:17:30;;;;;;;14.95;10.05;;;;;;;13.53;100.00;102408.94;4995805;28;20058;-68
2022/08/08 01:20:18;;;;;;;16.17;9.40;;;;;;;13.40;100.00;102415.84;4985228;28;20377;-68
2022/08/08 01:23:13;;;;;;;16.73;9.90;;;;;;;13.58;100.00;102417.63;4999568;28;20092;-67
2022/08/08 01:25:47;;;;;;;16.63;9.88;;;;;;;13.35;100.00;102417.91;4992622;28;20046;-67
2022/08/08 01:28:46;;;;;;;15.38;10.00;;;;;;;13.10;100.00;102421.78;4995505;28;20449;-67
2022/08/08 01:31:33;;;;;;;17.85;10.55;;;;;;;13.03;100.00;102428.34;4990158;28;20093;-67
2022/08/08 01:34:27;;;;;;;20.70;9.32;;;;;;;13.11;100.00;102423.50;4982272;28;20419;-68
2022/08/08 01:37:21;;;;;;;15.68;10.20;;;;;;;12.96;100.00;102425.13;4990440;28;20048;-69
2022/08/08 01:40:00;;;;;;;17.17;10.90;;;;;;;13.27;100.00;102426.34;4991098;28;20042;-67
2022/08/08 01:42:32;;;;;;;15.23;9.95;;;;;;;12.82;100.00;102416.00;4982757;28;20136;-69
2022/08/08 01:45:12;;;;;;;16.05;9.88;;;;;;;13.09;100.00;102420.00;4992245;28;20045;-68
2022/08/08 01:47:53;;;;;;;20.33;9.90;;;;;;;13.12;100.00;102416.34;4983314;28;20038;-66
2022/08/08 01:50:42;;;;;;;14.20;9.55;;;;;;;13.00;100.00;102423.13;5006360;28;20570;-67
2022/08/08 01:53:33;;;;;;;15.15;9.25;;;;;;;13.11;100.00;102425.31;4985682;28;20092;-67
2022/08/08 01:56:11;;;;;;;14.32;9.63;;;;;;;13.16;100.00;102418.78;4989514;28;20049;-69
2022/08/08 01:58:37;;;;;;;15.07;8.40;;;;;;;12.81;100.00;102422.31;4988990;28;20057;-67
2022/08/08 02:01:23;;;;;;;7.63;6.03;;;;;;;12.65;100.00;102423.03;4992012;28;20042;-68
2022/08/08 02:04:08;;;;;;;12.63;6.82;;;;;;;12.66;100.00;102421.22;5007648;28;20518;-68
2022/08/08 02:07:00;;;;;;;15.02;8.85;;;;;;;12.73;100.00;102411.94;5003962;28;20109;-67
2022/08/08 02:10:03;;;;;;;13.68;8.77;;;;;;;12.56;100.00;102418.09;4991934;28;20100;-68
2022/08/08 02:12:50;;;;;;;9.82;6.47;;;;;;;12.39;100.00;102413.50;4979776;28;20046;-68
2022/08/08 02:15:28;;;;;;;7.63;5.78;;;;;;;12.37;100.00;102414.53;5004608;28;20559;-68
2022/08/08 02:18:00;;;;;;;11.85;8.55;;;;;;;12.43;100.00;102419.59;4990399;28;20034;-68
2022/08/08 02:22:30;;;;;;;18.48;10.30;;;;;;;12.52;100.00;102407.59;4989940;28;20038;-67
2022/08/08 02:23:42;;;;;;;15.38;9.40;;;;;;;12.68;100.00;102403.25;4990018;28;20067;-67
2022/08/08 02:26:08;;;;;;;19.27;9.50;;;;;;;12.56;100.00;102406.53;4974609;28;20349;-68
2022/08/08 02:28:36;;;;;;;16.13;9.20;;;;;;;12.65;100.00;102401.63;4996015;28;20720;-66
2022/08/08 02:31:19;;;;;;;14.32;10.07;;;;;;;12.55;100.00;102408.34;4997294;28;20042;-67
2022/08/08 02:34:14;;;;;;;20.73;10.70;;;;;;;12.60;100.00;102411.66;4989661;28;20038;-67
2022/08/08 02:36:50;;;;;;;13.93;8.88;;;;;;;12.47;100.00;102409.63;5011139;28;20031;-69
2022/08/08 02:39:19;;;;;;;17.77;10.60;;;;;;;12.47;100.00;102407.81;5002081;28;20210;-67
2022/08/08 02:42:21;;;;;;;16.33;10.35;;;;;;;12.49;100.00;102413.09;4995510;28;20072;-68
2022/08/08 02:45:07;;;;;;;;;;;;;;;12.33;100.00;102411.09;5021957;28;20029;-67
2022/08/08 02:48:16;;;;;;;15.88;10.43;;;;;;;12.46;100.00;102411.44;4978365;28;19921;-68
2022/08/08 02:51:05;;;;;;;15.95;10.50;;;;;;;12.30;100.00;102413.06;4976150;28;20037;-66
2022/08/08 02:54:19;;;;;;;10.90;7.78;;;;;;;12.01;100.00;102414.38;4984953;28;20388;-67
2022/08/08 02:57:00;;;;;;;14.13;8.88;;;;;;;12.03;100.00;102425.84;4960218;28;20046;-68
2022/08/08 02:59:44;;;;;;;16.50;10.43;;;;;;;12.15;100.00;102423.53;4993260;28;20044;-66
2022/08/08 03:02:51;;;;;;;8.95;6.57;;;;;;;11.99;100.00;102422.44;4977866;28;20038;-67
2022/08/08 03:05:55;;;;;;;8.25;6.72;;;;;;;11.83;100.00;102424.06;4943854;28;20071;-68
2022/08/08 03:08:45;;;;;;;12.73;8.73;;;;;;;11.85;100.00;102425.75;4948596;28;20086;-68
2022/08/08 03:11:48;;;;;;;17.98;9.05;;;;;;;12.04;100.00;102428.44;4943241;28;20110;-67
2022/08/08 03:14:13;;;;;;;16.33;10.82;;;;;;;12.30;100.00;102423.75;4929812;28;20047;-68
2022/08/08 03:16:50;;;;;;;20.38;12.52;;;;;;;12.34;100.00;102420.88;4937079;28;20034;-68
2022/08/08 03:19:58;;;;;;;17.27;10.73;;;;;;;12.14;100.00;102423.56;4942917;28;20499;-68
2022/08/08 03:22:24;;;;;;;19.00;11.00;;;;;;;12.16;100.00;102421.72;4922239;28;20054;-66
2022/08/08 03:24:53;;;;;;;18.58;10.85;;;;;;;12.32;100.00;102422.75;4930081;29;20047;-68
2022/08/08 03:27:30;;;;;;;16.17;11.07;;;;;;;12.32;100.00;102429.91;4925276;29;20125;-67
2022/08/08 03:30:03;;;;;;;21.30;11.07;;;;;;;12.36;100.00;102429.72;4946619;28;20038;-68
2022/08/08 03:35:16;;;;;;;17.50;11.80;;;;;;;12.18;100.00;102428.72;4944140;28;20074;-68
2022/08/08 03:37:42;;;;;;;18.58;10.35;;;;;;;12.28;100.00;102423.81;4924879;28;20134;-67
2022/08/08 03:40:08;;;;;;;23.63;11.90;;;;;;;12.23;100.00;102433.88;4933333;28;20046;-70
2022/08/08 03:42:36;;;;;;;22.10;11.25;;;;;;;11.94;100.00;102435.16;4997945;28;20226;-68
2022/08/08 03:45:18;;;;;;;18.00;9.82;;;;;;;11.79;100.00;102435.78;4984813;28;20772;-68
2022/08/08 03:48:08;;;;;;;15.60;9.10;;;;;;;11.65;100.00;102442.59;4987307;28;20593;-68
2022/08/08 03:50:48;;;;;;;12.23;7.72;;;;;;;11.61;100.00;102443.66;4984353;28;20034;-68
2022/08/08 03:53:17;;;;;;;8.82;6.68;;;;;;;11.70;100.00;102446.84;4987197;28;20054;-67
2022/08/08 03:55:48;;;;;;;6.55;5.85;;;;;;;11.67;100.00;102437.19;4983224;28;20045;-68
2022/08/08 03:58:22;;;;;;;8.48;6.25;;;;;;;11.74;100.00;102437.78;4981291;28;20045;-68
2022/08/08 04:01:04;;;;;;;12.90;8.20;;;;;;;11.76;100.00;102441.28;4978890;28;20046;-69
2022/08/08 04:03:37;;;;;;;16.80;10.60;;;;;;;11.75;100.00;102440.41;4987337;28;20081;-67
2022/08/08 04:06:07;;;;;;;14.50;9.82;;;;;;;11.66;100.00;102448.81;4998214;28;20162;-70
2022/08/08 04:08:36;;;;;;;13.65;9.30;;;;;;;11.78;100.00;102450.94;4982133;28;20096;-67
2022/08/08 04:11:18;;;;;;;13.40;9.82;;;;;;;11.44;100.00;102448.81;4986762;28;20042;-68
2022/08/08 04:13:45;;;;;;;12.20;9.27;;;;;;;11.41;100.00;102455.16;4983873;28;20039;-68
2022/08/08 04:16:11;;;;;;;37.58;9.90;;;;;;;11.51;100.00;102455.66;4983727;28;20039;-68
2022/08/08 04:18:40;;;;;;;18.00;10.18;;;;;;;11.46;100.00;102454.97;4981305;28;20487;-67
2022/08/08 04:21:06;;;;;;;20.38;9.45;;;;;;;11.75;100.00;102459.13;4984424;28;20041;-68
2022/08/08 04:23:31;;;;;;;16.70;11.70;;;;;;;11.99;100.00;102465.22;4989434;28;20034;-67
2022/08/08 04:25:57;;;;;;;23.27;13.40;;;;;;;12.12;100.00;102462.91;4985867;28;20529;-68
2022/08/08 04:28:23;;;;;;;19.40;11.75;;;;;;;11.91;100.00;102454.00;4982693;28;20105;-68
2022/08/08 04:30:49;;;;;;;23.25;12.50;;;;;;;11.95;100.00;102463.63;4969358;28;20034;-68
2022/08/08 04:33:15;;;;;;;25.67;13.88;;;;;;;12.08;100.00;102472.84;4982064;28;20097;-68
2022/08/08 04:35:40;;;;;;;22.55;13.40;;;;;;;12.39;100.00;102468.81;4983484;28;20454;-67
2022/08/08 04:38:08;;;;;;;25.40;13.45;;;;;;;12.55;100.00;102469.00;4979775;28;20088;-67
2022/08/08 04:40:38;;;;;;;20.55;12.98;;;;;;;12.60;100.00;102475.00;4982762;28;20061;-66
2022/08/08 04:43:04;;;;;;;24.45;14.20;;;;;;;12.90;100.00;102472.72;4977781;28;20034;-68
2022/08/08 04:45:37;;;;;;;24.02;13.98;;;;;;;12.68;100.00;102476.41;4985814;28;20149;-68
2022/08/08 04:48:04;;;;;;;22.77;14.23;;;;;;;12.78;100.00;102484.00;4981035;28;20116;-68
2022/08/08 04:50:34;;;;;;;21.85;14.13;;;;;;;12.96;100.00;102476.00;4987085;28;20144;-66
2022/08/08 04:52:59;;;;;;;24.63;13.00;;;;;;;13.15;100.00;102481.34;4991059;28;20395;-69
2022/08/08 04:55:25;;;;;;;21.02;13.18;;;;;;;13.27;100.00;102477.22;4992122;28;20093;-68
2022/08/08 04:57:50;;;;;;;24.50;14.30;;;;;;;13.47;100.00;102484.28;4987194;28;20045;-67
2022/08/08 05:00:16;;;;;;;20.95;12.98;;;;;;;13.44;100.00;102487.97;4985667;28;20851;-68
2022/08/08 05:02:42;;;;;;;26.95;14.13;;;;;;;13.24;100.00;102484.53;4967215;28;20037;-68
2022/08/08 05:05:08;;;;;;;25.05;14.38;;;;;;;13.40;100.00;102486.41;4983665;28;20030;-68
2022/08/08 05:07:34;;;;;;;29.55;13.05;;;;;;;13.42;100.00;102489.00;4990330;28;20506;-67
2022/08/08 05:10:00;;;;;;;20.48;13.20;;;;;;;13.48;100.00;102491.38;4970808;28;20061;-69
2022/08/08 05:12:26;;;;;;;22.45;13.13;;;;;;;13.75;100.00;102489.13;4968653;28;20046;-67
2022/08/08 05:14:51;;;;;;;26.25;13.75;;;;;;;13.76;100.00;102495.41;4986397;28;20042;-68
2022/08/08 05:17:18;;;;;;;20.63;13.82;;;;;;;13.63;100.00;102495.13;4985751;28;20469;-68
2022/08/08 05:19:44;;;;;;;23.25;13.82;;;;;;;14.17;100.00;102501.31;4972465;28;20042;-67
2022/08/08 05:22:11;;;;;;;18.88;13.07;;;;;;;14.24;100.00;102498.22;4988385;28;20650;-69
2022/08/08 05:24:41;;;;;;;23.70;13.88;;;;;;;14.41;100.00;102496.50;4972946;28;20820;-69
2022/08/08 05:27:07;;;;;;;27.85;13.93;;;;;;;14.73;100.00;102502.84;4963312;28;20042;-68
2022/08/08 05:29:35;;;;;;;22.73;12.60;;;;;;;14.87;100.00;102488.66;4959973;28;20104;-68
2022/08/08 05:32:08;;;;;;;23.23;12.15;;;;;;;14.98;100.00;102488.94;4973136;28;20034;-69
2022/08/08 05:34:41;;;;;;;16.23;11.80;;;;;;;14.89;100.00;102493.00;4970437;28;20092;-67
2022/08/08 05:37:06;;;;;;;;;;;;;;;15.07;100.00;102492.94;4982358;28;20041;-68
2022/08/08 05:39:33;;;;;;;18.40;11.38;;;;;;;15.07;100.00;102484.88;4983048;28;20298;-66
2022/08/08 05:41:59;;;;;;;17.13;11.98;;;;;;;15.31;100.00;102490.66;4985647;28;20054;-67
2022/08/08 05:44:29;;;;;;;18.80;11.35;;;;;;;15.55;100.00;102490.13;4969739;28;20049;-67
2022/08/08 05:46:57;;;;;;;23.75;11.07;;;;;;;15.42;100.00;102490.94;4979901;28;20038;-69
2022/08/08 05:49:23;;;;;;;17.40;10.77;;;;;;;15.53;100.00;102493.88;4982546;28;20044;-68
2022/08/08 05:51:49;;;;;;;16.98;9.15;;;;;;;15.83;100.00;102495.75;4980260;28;20526;-69
2022/08/08 05:54:18;;;;;;;18.35;10.02;;;;;;;15.87;100.00;102494.63;4979846;28;20046;-68
2022/08/08 05:56:44;;;;;;;14.88;9.85;;;;;;;16.11;100.00;102494.97;4980642;28;20829;-68
2022/08/08 05:59:24;;;;;;;16.92;8.43;;;;;;;16.16;100.00;102499.09;4981582;28;20278;-68
2022/08/08 06:01:53;;;;;;;19.02;9.25;;;;;;;16.52;100.00;102501.41;4967584;28;20097;-68
2022/08/08 06:04:27;;;;;;;15.32;8.77;;;;;;;16.67;100.00;102491.50;5000578;28;20065;-69
2022/08/08 06:06:59;;;;;;;11.73;8.45;;;;;;;16.04;100.00;102497.16;4967547;28;20034;-69
2022/08/08 06:09:31;;;;;;;14.18;9.18;;;;;;;16.35;100.00;102498.88;4980668;28;20054;-69
2022/08/08 06:12:00;;;;;;;13.18;9.70;;;;;;;16.46;100.00;102498.19;4964921;28;20124;-68
2022/08/08 06:14:27;;;;;;;17.70;8.50;;;;;;;16.58;100.00;102501.00;4980428;28;20042;-67
2022/08/08 06:16:56;;;;;;;12.60;7.95;;;;;;;16.64;100.00;102496.19;4979698;28;20597;-68
2022/08/08 06:19:28;;;;;;;12.65;7.72;;;;;;;16.65;100.00;102508.72;4972138;28;20129;-67
2022/08/08 06:21:55;;;;;;;16.35;9.10;;;;;;;17.12;100.00;102499.47;4973918;28;20411;-67
2022/08/08 06:24:25;;;;;;;10.38;7.93;;;;;;;17.11;100.00;102501.28;4968496;28;20048;-69
2022/08/08 06:27:01;;;;;;;11.73;7.15;;;;;;;17.35;98.23;102505.09;4991080;28;20050;-68
2022/08/08 06:29:43;;;;;;;10.77;7.45;;;;;;;17.78;98.00;102509.53;4983129;28;20049;-68
2022/08/08 06:32:14;;;;;;;12.70;7.00;;;;;;;18.09;96.77;102508.31;4982404;28;20401;-68
2022/08/08 06:34:45;;;;;;;11.88;6.70;;;;;;;18.40;95.86;102512.44;4984765;28;20041;-69
2022/08/08 06:37:12;;;;;;;12.38;6.43;;;;;;;18.32;91.81;102506.69;4982391;28;20049;-68
2022/08/08 06:39:42;;;;;;;11.35;6.22;;;;;;;18.03;92.75;102514.13;4979793;28;20105;-68
2022/08/08 06:42:11;;;;;;;7.75;6.32;;;;;;;18.00;92.41;102517.03;4978707;28;20049;-67
2022/08/08 06:44:41;;;;;;;14.73;6.45;;;;;;;18.43;94.75;102524.88;4977836;28;20150;-67
2022/08/08 06:47:07;;;;;;;11.98;6.03;;;;;;;18.41;91.07;102524.13;4961682;28;20626;-66
2022/08/08 06:49:32;;;;;;;9.57;5.50;;;;;;;18.52;90.98;102524.22;4966319;28;20085;-66
2022/08/08 06:52:00;;;;;;;8.38;4.88;;;;;;;18.86;88.63;102531.69;4978564;28;20042;-67
2022/08/08 06:54:26;;;;;;;9.57;5.53;;;;;;;18.97;87.85;102524.66;4976032;28;20031;-69
2022/08/08 06:56:53;;;;;;;10.88;5.28;;;;;;;19.58;85.43;102520.19;4980093;28;20065;-68
2022/08/08 06:59:20;;;;;;;12.38;5.07;;;;;;;19.95;81.70;102521.00;4973002;28;20749;-68
2022/08/08 07:01:59;;;;;;;7.82;4.85;;;;;;;19.82;83.20;102525.59;4968054;28;20062;-68
2022/08/08 07:04:36;;;;;;;8.52;4.85;;;;;;;19.71;83.34;102521.00;4989396;28;20038;-68
2022/08/08 07:07:07;;;;;;;9.48;5.25;;;;;;;19.74;81.50;102517.22;4981960;28;20031;-68
2022/08/08 07:09:37;;;;;;;8.73;5.70;;;;;;;20.01;79.96;102517.81;4978864;28;20117;-69
2022/08/08 07:12:07;;;;;;;8.30;4.65;;;;;;;19.90;79.58;102517.78;4998910;28;20505;-69
2022/08/08 07:14:59;;;;;;;9.13;4.05;;;;;;;19.75;79.44;102521.66;4988570;28;20499;-68
2022/08/08 07:17:31;;;;;;;6.38;3.05;;;;;;;20.08;78.27;102529.03;4978424;28;20049;-68
2022/08/08 07:20:07;;;;;;;7.82;3.20;;;;;;;19.98;79.29;102526.19;4963322;28;20042;-68
2022/08/08 07:22:55;;;;;;;9.07;3.63;;;;;;;20.20;77.19;102530.81;4966266;28;20073;-67
2022/08/08 07:25:24;;;;;;;6.57;3.25;;;;;;;20.33;75.63;102523.47;4981819;28;20116;-68
2022/08/08 07:27:58;;;;;;;5.78;3.13;;;;;;;19.90;77.17;102534.03;4970398;28;20133;-68
2022/08/08 07:30:24;;;;;;;9.73;3.28;;;;;;;20.08;78.20;102531.75;4984316;28;20042;-67
2022/08/08 07:32:50;;;;;;;9.93;3.78;;;;;;;19.88;77.24;102531.44;4981252;28;20414;-69
2022/08/08 07:35:16;;;;;;;9.95;2.88;;;;;;;20.04;76.37;102528.41;4967112;28;20113;-67
2022/08/08 07:37:48;;;;;;;6.60;2.97;;;;;;;20.35;75.80;102537.75;4979942;28;20161;-69
2022/08/08 07:40:16;;;;;;;5.90;2.90;;;;;;;20.31;76.64;102529.97;4979089;28;20112;-66
2022/08/08 07:42:43;;;;;;;3.85;2.85;;;;;;;20.73;74.20;102538.44;4978992;28;20038;-69
2022/08/08 07:45:10;;;;;;;8.40;2.90;;;;;;;21.05;72.82;102533.19;4979079;28;20407;-69
2022/08/08 07:47:40;;;;;;;5.00;3.33;;;;;;;21.06;73.22;102533.03;4978929;28;20042;-69
2022/08/08 07:50:09;;;;;;;5.82;2.85;;;;;;;21.50;70.31;102533.16;4978880;28;20862;-69
2022/08/08 07:52:37;;;;;;;6.35;2.88;;;;;;;21.26;69.00;102539.56;4978595;28;20545;-68
2022/08/08 07:55:04;;;;;;;2.50;2.30;;;;;;;21.60;69.42;102529.53;4978746;28;20038;-67
2022/08/08 07:57:45;;;;;;;6.13;2.63;;;;;;;21.38;71.30;102533.16;4978974;28;20499;-68
2022/08/08 08:00:14;;;;;;;5.93;2.53;;;;;;;21.60;68.40;102529.53;4979376;28;20042;-69
2022/08/08 08:03:06;;;;;;;15.27;3.88;;;;;;;21.16;66.84;102528.59;4991708;28;20045;-68
2022/08/08 08:05:38;;;;;;;8.13;2.47;;;;;;;21.77;67.82;102532.69;4999147;28;20138;-69
2022/08/08 08:08:15;;;;;;;3.22;2.00;;;;;;;21.91;68.36;102535.97;4986503;28;20045;-67
2022/08/08 08:10:43;;;;;;;9.63;2.33;;;;;;;21.97;66.75;102543.59;4973736;28;20042;-68
2022/08/08 08:13:20;;;;;;;5.10;2.10;;;;;;;22.19;66.67;102547.25;4970553;28;20114;-68
2022/08/08 08:16:08;;;;;;;12.35;2.78;;;;;;;22.13;65.63;102551.31;4965921;28;20793;-67
2022/08/08 08:18:51;;;;;;;4.40;2.42;;;;;;;21.46;67.24;102546.09;4979303;28;20129;-68
2022/08/08 08:21:18;;;;;;;6.30;2.40;;;;;;;21.49;69.38;102542.25;4963736;28;20149;-69
2022/08/08 08:23:44;;;;;;;4.53;2.00;;;;;;;21.48;65.47;102543.25;4953210;28;20047;-67
2022/08/08 08:26:12;;;;;;;11.90;2.30;;;;;;;21.62;65.60;102549.25;4988009;28;20054;-68
2022/08/08 08:28:39;;;;;;;3.95;2.75;;;;;;;22.55;63.80;102539.63;4982754;28;20119;-68
2022/08/08 08:31:06;;;;;;;12.52;2.63;;;;;;;22.23;65.12;102551.41;5004864;28;20053;-67
2022/08/08 08:33:34;;;;;;;5.35;2.08;;;;;;;22.25;66.58;102543.13;4990298;28;20754;-68
2022/08/08 08:36:01;;;;;;;2.35;1.67;;;;;;;22.61;65.69;102544.50;4982371;28;20044;-68
2022/08/08 08:38:29;;;;;;;8.70;2.53;;;;;;;22.52;64.40;102538.00;4982455;28;20229;-68
2022/08/08 08:41:05;;;;;;;5.68;2.25;;;;;;;22.03;62.53;102547.63;4982573;28;20554;-68
2022/08/08 08:43:34;;;;;;;5.70;2.88;;;;;;;22.00;65.57;102541.63;4982246;28;20046;-68
2022/08/08 08:46:00;;;;;;;5.22;1.95;;;;;;;22.62;66.87;102544.38;4983923;28;20060;-68
2022/08/08 08:48:26;;;;;;;3.35;1.38;;;;;;;22.21;61.57;102546.09;4982713;28;20546;-69
2022/08/08 08:50:54;;;;;;;3.90;1.50;;;;;;;22.42;63.83;102542.53;4982429;28;20146;-69
2022/08/08 08:53:21;;;;;;;3.58;1.77;;;;;;;22.76;62.29;102545.88;4982006;28;20030;-66
2022/08/08 08:55:48;;;;;;;2.33;1.73;;;;;;;22.51;60.64;102546.31;4981344;28;20581;-68
2022/08/08 08:58:30;;;;;;;5.65;1.80;;;;;;;22.96;61.99;102550.44;4982272;28;20373;-69
2022/08/08 09:00:59;;;;;;;6.47;1.70;;;;;;;22.75;64.21;102546.88;4982814;28;20765;-69
2022/08/08 09:03:26;;;;;;;1.17;1.08;;;;;;;22.45;60.52;102548.56;4980825;28;20038;-68
2022/08/08 09:05:52;;;;;;;5.25;1.50;;;;;;;22.97;59.89;102551.31;4983390;28;20147;-69
2022/08/08 09:08:23;;;;;;;1.23;0.85;;;;;;;23.05;56.39;102550.63;4983426;28;20046;-69
2022/08/08 09:10:48;;;;;;;1.85;1.00;;;;;;;22.75;57.01;102547.75;4981553;28;20050;-69
2022/08/08 09:13:16;;;;;;;1.90;1.30;;;;;;;22.58;62.69;102552.94;4981538;28;20609;-69
2022/08/08 09:15:43;;;;;;;2.42;1.30;;;;;;;21.97;60.52;102559.03;4970749;28;20073;-69
2022/08/08 09:18:11;;;;;;;4.50;1.60;;;;;;;22.33;61.95;102557.78;4989771;28;20034;-68
2022/08/08 09:20:37;;;;;;;4.95;1.42;;;;;;;22.41;61.39;102552.53;4981460;28;20081;-69
2022/08/08 09:23:03;;;;;;;2.33;1.25;;;;;;;22.41;60.26;102560.69;4981870;28;20129;-69
2022/08/08 09:25:32;;;;;;;5.50;1.00;;;;;;;22.49;55.76;102555.47;5001897;28;20137;-69
2022/08/08 09:27:58;;;;;;;3.70;0.95;;;;;;;22.33;57.87;102563.19;4981488;28;20475;-68
2022/08/08 09:30:30;;;;;;;2.38;1.17;;;;;;;21.93;61.53;102571.13;4981546;28;20068;-68
2022/08/08 09:32:56;;;;;;;1.92;1.27;;;;;;;22.26;61.56;102562.03;4985968;28;20074;-67
2022/08/08 09:35:27;;;;;;;1.60;1.20;;;;;;;22.64;58.34;102560.53;4987875;28;20060;-69
2022/08/08 09:37:59;;;;;;;1.48;1.00;;;;;;;22.25;59.51;102559.44;4981060;28;20463;-69
2022/08/08 09:40:31;;;;;;;3.30;0.98;;;;;;;22.81;58.83;102559.94;4980865;28;20051;-69
2022/08/08 09:43:29;;;;;;;2.80;1.00;;;;;;;22.84;55.56;102556.06;4982560;28;20042;-69
2022/08/08 09:46:04;;;;;;;3.88;1.20;;;;;;;23.22;56.31;102552.69;4986450;28;20502;-67
2022/08/08 09:48:33;;;;;;;2.15;0.90;;;;;;;23.07;53.87;102554.06;4982648;28;20874;-69
2022/08/08 09:50:59;;;;;;;2.15;0.98;;;;;;;22.88;58.62;102549.38;4982373;28;20038;-69
2022/08/08 09:53:35;;;;;;;2.53;1.02;;;;;;;22.69;57.43;102556.44;4983224;28;20041;-67
2022/08/08 09:56:06;;;;;;;2.53;1.52;;;;;;;22.44;61.57;102554.13;4982642;28;20057;-69
2022/08/08 09:58:46;;;;;;;3.10;1.27;;;;;;;22.63;61.29;102553.38;4982625;28;20038;-68
2022/08/08 10:01:17;;;;;;;1.88;1.10;;;;;;;22.48;56.01;102552.88;4993836;28;20727;-69
2022/08/08 10:03:45;;;;;;;2.20;1.45;;;;;;;23.30;57.79;102542.00;4983226;28;20470;-68
2022/08/08 10:06:18;;;;;;;3.35;1.25;;;;;;;22.66;56.91;102551.28;4982049;28;20455;-68
2022/08/08 10:08:49;;;;;;;2.17;1.20;;;;;;;22.99;57.33;102560.19;4980849;28;20051;-69
2022/08/08 10:11:18;;;;;;;7.47;1.33;;;;;;;23.15;55.54;102552.41;4993216;28;20061;-69
2022/08/08 10:13:58;;;;;;;2.38;1.15;;;;;;;23.02;55.00;102549.03;4985229;28;20058;-69
2022/08/08 10:16:35;;;;;;;2.33;1.05;;;;;;;23.65;55.84;102549.69;4983045;28;20133;-69
2022/08/08 10:19:05;;;;;;;2.38;1.20;;;;;;;23.70;55.09;102541.09;4982990;28;20133;-68
2022/08/08 10:21:34;;;;;;;4.05;1.33;;;;;;;22.71;59.61;102564.47;4981393;28;20046;-68
2022/08/08 10:24:04;;;;;;;2.35;1.40;;;;;;;23.95;52.79;102551.44;4982488;28;20521;-69
2022/08/08 10:26:46;;;;;;;6.13;1.40;;;;;;;24.08;51.97;102551.13;4987018;28;20073;-69
2022/08/08 10:29:12;;;;;;;1.45;1.13;;;;;;;23.75;51.57;102547.84;4981343;28;20038;-70
2022/08/08 10:34:25;;;;;;;2.78;1.35;;;;;;;24.15;52.71;102551.44;4982526;28;20396;-69
2022/08/08 10:36:52;;;;;;;1.75;0.90;;;;;;;23.29;54.38;102558.44;4982183;28;20109;-68
2022/08/08 10:39:26;;;;;;;5.15;1.27;;;;;;;23.12;50.44;102557.25;4980472;28;20058;-68
2022/08/08 10:42:03;;;;;;;3.53;1.30;;;;;;;22.96;57.46;102557.75;4981932;28;20874;-69
2022/08/08 10:44:38;;;;;;;1.02;0.90;;;;;;;22.44;55.30;102556.84;4995192;28;20073;-69
2022/08/08 10:47:11;;;;;;;3.42;1.00;;;;;;;22.49;55.91;102555.47;4982289;28;20053;-69
2022/08/08 10:49:39;;;;;;;1.58;1.27;;;;;;;23.48;55.64;102544.88;4982580;28;20122;-68
2022/08/08 10:52:05;;;;;;;4.07;1.23;;;;;;;24.73;49.43;102535.84;4964858;28;20046;-69
2022/08/08 10:54:30;;;;;;;2.38;1.38;;;;;;;24.66;50.34;102545.63;4981923;28;20061;-69
2022/08/08 10:56:57;;;;;;;3.22;1.80;;;;;;;24.47;48.29;102538.34;4982256;28;20691;-70
2022/08/08 10:59:24;;;;;;;3.70;1.15;;;;;;;23.91;51.77;102547.28;4980901;28;20118;-69
2022/08/08 11:01:50;;;;;;;1.88;1.10;;;;;;;23.71;50.26;102534.66;4968432;28;20030;-69
2022/08/08 11:04:15;;;;;;;1.23;1.05;;;;;;;23.79;49.31;102537.50;4982400;28;20089;-69
2022/08/08 11:06:41;;;;;;;4.85;1.02;;;;;;;24.16;48.51;102531.34;4982217;28;20045;-69
2022/08/08 11:09:08;;;;;;;6.35;1.23;;;;;;;25.05;47.43;102535.44;4981606;28;20041;-68
2022/08/08 11:11:45;;;;;;;4.25;1.05;;;;;;;23.92;52.67;102543.53;4981955;28;20060;-69
2022/08/08 11:14:13;;;;;;;4.03;1.30;;;;;;;23.29;53.99;102536.66;4968867;28;20503;-69
2022/08/08 11:16:42;;;;;;;1.38;0.98;;;;;;;23.48;52.18;102534.84;4981394;28;20081;-69
2022/08/08 11:19:08;;;;;;;1.75;1.45;;;;;;;24.15;52.84;102529.63;4981160;28;20096;-70
2022/08/08 11:21:39;;;;;;;1.83;1.00;;;;;;;25.27;47.97;102533.34;4992922;28;20038;-67
2022/08/08 11:24:07;;;;;;;4.10;1.40;;;;;;;24.07;53.78;102543.13;4996944;28;20102;-67
2022/08/08 11:26:35;;;;;;;2.10;1.20;;;;;;;23.03;53.59;102545.31;4987765;28;20042;-69
2022/08/08 11:29:02;;;;;;;1.75;1.30;;;;;;;23.44;51.66;102535.25;4979705;28;20467;-69
2022/08/08 11:31:37;;;;;;;1.70;0.90;;;;;;;23.22;53.77;102539.09;4981324;28;20053;-68
2022/08/08 11:34:03;;;;;;;2.08;1.65;;;;;;;23.08;54.29;102544.91;4979939;28;20065;-69
2022/08/08 11:36:31;;;;;;;0.80;0.80;;;;;;;22.67;53.76;102541.25;4982091;28;20483;-68
2022/08/08 11:38:57;;;;;;;1.48;1.20;;;;;;;22.99;55.91;102533.88;4982145;28;20080;-69
2022/08/08 11:41:23;;;;;;;3.45;1.17;;;;;;;23.25;51.54;102523.34;4981471;28;20035;-67
2022/08/08 11:43:50;;;;;;;5.25;1.42;;;;;;;23.81;52.98;102519.16;4980236;28;20628;-69
2022/08/08 11:46:16;;;;;;;2.90;1.25;;;;;;;24.15;48.84;102518.72;4981049;28;20038;-68
2022/08/08 11:48:42;;;;;;;1.33;1.10;;;;;;;23.87;50.11;102509.56;4981110;28;20822;-69
2022/08/08 11:51:09;;;;;;;4.10;1.58;;;;;;;24.40;49.69;102519.97;4980844;28;20190;-67